5VA9 weather

Kilmarnock/Tolbert Field
Kilmarnock, Virginia, United States

Public forecast

Using degrees Fahrenheit for public forecast. Weather courtesy of forecast.io.

METAR (pilot weather report)

Closest report is Tangier Island Airport, 17.2 nm (31.8 km) ENE. Retrieved 2019/09/19 11:42 UTC (0 seconds ago):

KTGI 191142Z AUTO 03010KT 10SM SCT043 17/09 A3029 RMK AO1

TAF (pilot weather forecast)

Closest forecast is Newport News Williamsburg International Airport, 34.7 nm (64.2 km) SSW. Retrieved 2019/09/19 06:42 UTC (5 hours ago):

TAF KPHF 190540Z 1906/2006 04008KT P6SM FEW040 FM191000 04010KT P6SM SCT030 FM191500 05011G18KT P6SM BKN040 FM192000 06009KT P6SM FEW050